sensor_id;sensor_type;location;lat;lon;timestamp;pressure;altitude;pressure_sealevel;temperature;humidity
64853;BME280;56050;55.558;-4.644;2023-07-20T00:00:16;101719.13;;;15.65;62.12
64853;BME280;56050;55.558;-4.644;2023-07-20T00:02:42;101715.66;;;15.61;61.75
64853;BME280;56050;55.558;-4.644;2023-07-20T00:05:08;101714.50;;;15.55;61.75
64853;BME280;56050;55.558;-4.644;2023-07-20T00:07:33;101719.22;;;15.51;62.11
64853;BME280;56050;55.558;-4.644;2023-07-20T00:09:59;101713.00;;;15.47;61.85
64853;BME280;56050;55.558;-4.644;2023-07-20T00:12:24;101712.22;;;15.43;61.93
64853;BME280;56050;55.558;-4.644;2023-07-20T00:14:50;101711.88;;;15.41;61.83
64853;BME280;56050;55.558;-4.644;2023-07-20T00:17:18;101711.47;;;15.39;61.88
64853;BME280;56050;55.558;-4.644;2023-07-20T00:19:44;101707.22;;;15.38;61.69
64853;BME280;56050;55.558;-4.644;2023-07-20T00:22:09;101718.44;;;15.36;61.95
64853;BME280;56050;55.558;-4.644;2023-07-20T00:24:35;101715.38;;;15.34;61.67
64853;BME280;56050;55.558;-4.644;2023-07-20T00:27:00;101709.94;;;15.30;62.02
64853;BME280;56050;55.558;-4.644;2023-07-20T00:29:26;101713.84;;;15.29;61.74
64853;BME280;56050;55.558;-4.644;2023-07-20T00:31:51;101712.28;;;15.28;61.86
64853;BME280;56050;55.558;-4.644;2023-07-20T00:34:17;101714.22;;;15.28;61.99
64853;BME280;56050;55.558;-4.644;2023-07-20T00:36:42;101708.00;;;15.27;61.86
64853;BME280;56050;55.558;-4.644;2023-07-20T00:39:08;101713.84;;;15.26;62.07
64853;BME280;56050;55.558;-4.644;2023-07-20T00:41:33;101711.50;;;15.24;62.00
64853;BME280;56050;55.558;-4.644;2023-07-20T00:43:59;101704.19;;;15.21;62.09
64853;BME280;56050;55.558;-4.644;2023-07-20T00:46:24;101708.44;;;15.19;62.26
64853;BME280;56050;55.558;-4.644;2023-07-20T00:48:51;101699.13;;;15.16;62.46
64853;BME280;56050;55.558;-4.644;2023-07-20T00:51:18;101703.03;;;15.15;62.56
64853;BME280;56050;55.558;-4.644;2023-07-20T00:53:43;101699.53;;;15.15;62.56
64853;BME280;56050;55.558;-4.644;2023-07-20T00:56:09;101713.88;;;15.15;62.77
64853;BME280;56050;55.558;-4.644;2023-07-20T00:58:35;101702.25;;;15.11;62.78
64853;BME280;56050;55.558;-4.644;2023-07-20T01:01:00;101695.31;;;15.10;63.07
64853;BME280;56050;55.558;-4.644;2023-07-20T01:03:26;101709.25;;;15.09;63.38
64853;BME280;56050;55.558;-4.644;2023-07-20T01:08:40;101703.44;;;15.03;63.87
64853;BME280;56050;55.558;-4.644;2023-07-20T01:11:26;101695.72;;;15.02;63.86
64853;BME280;56050;55.558;-4.644;2023-07-20T01:13:53;101701.13;;;15.02;63.74
64853;BME280;56050;55.558;-4.644;2023-07-20T01:16:19;101696.88;;;15.01;63.94
64853;BME280;56050;55.558;-4.644;2023-07-20T01:18:44;101696.50;;;14.99;64.00
64853;BME280;56050;55.558;-4.644;2023-07-20T01:21:15;101695.34;;;14.96;64.03
64853;BME280;56050;55.558;-4.644;2023-07-20T01:32:16;101694.56;;;14.89;64.75
64853;BME280;56050;55.558;-4.644;2023-07-20T01:34:43;101690.69;;;14.86;64.69
64853;BME280;56050;55.558;-4.644;2023-07-20T01:37:10;101691.09;;;14.85;64.81
64853;BME280;56050;55.558;-4.644;2023-07-20T01:39:36;101689.53;;;14.84;64.64
64853;BME280;56050;55.558;-4.644;2023-07-20T01:42:02;101688.38;;;14.85;64.48
64853;BME280;56050;55.558;-4.644;2023-07-20T01:44:28;101688.75;;;14.87;64.62
64853;BME280;56050;55.558;-4.644;2023-07-20T01:46:54;101690.69;;;14.86;64.73
64853;BME280;56050;55.558;-4.644;2023-07-20T01:49:19;101686.03;;;14.83;64.81
64853;BME280;56050;55.558;-4.644;2023-07-20T01:51:45;101689.16;;;14.82;64.49
64853;BME280;56050;55.558;-4.644;2023-07-20T01:54:10;101686.84;;;14.80;64.77
64853;BME280;56050;55.558;-4.644;2023-07-20T01:56:35;101681.81;;;14.79;64.61
64853;BME280;56050;55.558;-4.644;2023-07-20T01:59:01;101687.22;;;14.79;64.81
64853;BME280;56050;55.558;-4.644;2023-07-20T02:01:26;101683.00;;;14.74;64.88
64853;BME280;56050;55.558;-4.644;2023-07-20T02:03:53;101686.84;;;14.73;64.85
64853;BME280;56050;55.558;-4.644;2023-07-20T02:06:19;101687.25;;;14.72;64.84
64853;BME280;56050;55.558;-4.644;2023-07-20T02:08:45;101686.47;;;14.71;64.79
64853;BME280;56050;55.558;-4.644;2023-07-20T02:11:11;101690.34;;;14.70;64.62
64853;BME280;56050;55.558;-4.644;2023-07-20T02:13:36;101682.97;;;14.67;64.77
64853;BME280;56050;55.558;-4.644;2023-07-20T02:16:01;101680.69;;;14.65;64.51
64853;BME280;56050;55.558;-4.644;2023-07-20T02:18:27;101676.81;;;14.63;64.80
64853;BME280;56050;55.558;-4.644;2023-07-20T02:20:53;101684.53;;;14.61;64.73
64853;BME280;56050;55.558;-4.644;2023-07-20T02:23:19;101685.72;;;14.60;64.77
64853;BME280;56050;55.558;-4.644;2023-07-20T02:25:44;101677.97;;;14.58;64.86
64853;BME280;56050;55.558;-4.644;2023-07-20T02:28:13;101682.22;;;14.56;64.77
64853;BME280;56050;55.558;-4.644;2023-07-20T02:30:38;101684.56;;;14.54;64.95
64853;BME280;56050;55.558;-4.644;2023-07-20T02:33:07;101683.41;;;14.51;65.03
64853;BME280;56050;55.558;-4.644;2023-07-20T02:35:32;101677.59;;;14.49;64.95
64853;BME280;56050;55.558;-4.644;2023-07-20T02:37:58;101676.81;;;14.49;64.96
64853;BME280;56050;55.558;-4.644;2023-07-20T02:40:23;101673.72;;;14.47;64.97
64853;BME280;56050;55.558;-4.644;2023-07-20T02:42:49;101676.81;;;14.45;64.65
64853;BME280;56050;55.558;-4.644;2023-07-20T02:45:14;101674.88;;;14.42;64.95
64853;BME280;56050;55.558;-4.644;2023-07-20T02:47:40;101675.66;;;14.39;64.74
64853;BME280;56050;55.558;-4.644;2023-07-20T02:50:07;101673.72;;;14.36;64.91
64853;BME280;56050;55.558;-4.644;2023-07-20T02:52:33;101672.56;;;14.34;64.78
64853;BME280;56050;55.558;-4.644;2023-07-20T02:54:58;101672.97;;;14.32;64.60
64853;BME280;56050;55.558;-4.644;2023-07-20T02:57:24;101672.19;;;14.32;64.60
64853;BME280;56050;55.558;-4.644;2023-07-20T02:59:49;101667.88;;;14.31;64.56
64853;BME280;56050;55.558;-4.644;2023-07-20T03:02:15;101668.66;;;14.31;64.39
64853;BME280;56050;55.558;-4.644;2023-07-20T03:04:40;101675.69;;;14.32;64.40
64853;BME280;56050;55.558;-4.644;2023-07-20T03:07:06;101673.75;;;14.33;64.20
64853;BME280;56050;55.558;-4.644;2023-07-20T03:09:32;101676.47;;;14.33;64.34
64853;BME280;56050;55.558;-4.644;2023-07-20T03:11:58;101674.91;;;14.32;64.12
64853;BME280;56050;55.558;-4.644;2023-07-20T03:14:23;101675.63;;;14.29;64.12
64853;BME280;56050;55.558;-4.644;2023-07-20T03:16:49;101679.13;;;14.26;64.28
64853;BME280;56050;55.558;-4.644;2023-07-20T03:19:15;101666.34;;;14.23;64.17
64853;BME280;56050;55.558;-4.644;2023-07-20T03:21:40;101671.75;;;14.23;64.19
64853;BME280;56050;55.558;-4.644;2023-07-20T03:24:07;101675.66;;;14.22;64.08
64853;BME280;56050;55.558;-4.644;2023-07-20T03:26:34;101676.81;;;14.21;63.91
64853;BME280;56050;55.558;-4.644;2023-07-20T03:29:00;101677.94;;;14.20;64.11
64853;BME280;56050;55.558;-4.644;2023-07-20T03:31:25;101679.91;;;14.19;63.77
64853;BME280;56050;55.558;-4.644;2023-07-20T03:33:52;101687.25;;;14.19;63.79
64853;BME280;56050;55.558;-4.644;2023-07-20T03:36:17;101677.56;;;14.18;63.94
64853;BME280;56050;55.558;-4.644;2023-07-20T03:38:43;101684.16;;;14.17;63.88
64853;BME280;56050;55.558;-4.644;2023-07-20T03:41:08;101680.28;;;14.14;63.73
64853;BME280;56050;55.558;-4.644;2023-07-20T03:43:34;101681.81;;;14.11;63.71
64853;BME280;56050;55.558;-4.644;2023-07-20T03:46:00;101673.72;;;14.08;63.86
64853;BME280;56050;55.558;-4.644;2023-07-20T03:48:25;101683.38;;;14.05;63.81
64853;BME280;56050;55.558;-4.644;2023-07-20T03:50:52;101688.41;;;14.03;63.77
64853;BME280;56050;55.558;-4.644;2023-07-20T03:53:18;101682.22;;;13.99;63.86
64853;BME280;56050;55.558;-4.644;2023-07-20T03:55:48;101676.38;;;13.97;64.03
64853;BME280;56050;55.558;-4.644;2023-07-20T03:58:14;101683.00;;;13.96;63.93
64853;BME280;56050;55.558;-4.644;2023-07-20T04:00:39;101671.34;;;13.92;64.06
64853;BME280;56050;55.558;-4.644;2023-07-20T04:03:06;101674.84;;;13.89;64.04
64853;BME280;56050;55.558;-4.644;2023-07-20T04:05:31;101676.00;;;13.88;64.10
64853;BME280;56050;55.558;-4.644;2023-07-20T04:07:56;101674.44;;;13.87;64.06
64853;BME280;56050;55.558;-4.644;2023-07-20T04:10:22;101673.31;;;13.88;64.18
64853;BME280;56050;55.558;-4.644;2023-07-20T04:12:47;101677.53;;;13.89;64.01
64853;BME280;56050;55.558;-4.644;2023-07-20T04:15:13;101673.31;;;13.88;64.06
64853;BME280;56050;55.558;-4.644;2023-07-20T04:17:40;101675.22;;;13.88;64.03
64853;BME280;56050;55.558;-4.644;2023-07-20T04:20:07;101682.97;;;13.86;64.05
64853;BME280;56050;55.558;-4.644;2023-07-20T04:22:34;101673.28;;;13.81;63.72
64853;BME280;56050;55.558;-4.644;2023-07-20T04:24:59;101677.53;;;13.79;63.96
64853;BME280;56050;55.558;-4.644;2023-07-20T04:27:25;101672.88;;;13.76;64.08
64853;BME280;56050;55.558;-4.644;2023-07-20T04:29:51;101671.34;;;13.71;64.11
64853;BME280;56050;55.558;-4.644;2023-07-20T04:32:16;101669.38;;;13.68;64.08
64853;BME280;56050;55.558;-4.644;2023-07-20T04:34:42;101660.88;;;13.66;64.04
64853;BME280;56050;55.558;-4.644;2023-07-20T04:37:07;101672.88;;;13.65;64.12
64853;BME280;56050;55.558;-4.644;2023-07-20T04:39:33;101672.88;;;13.65;64.17
64853;BME280;56050;55.558;-4.644;2023-07-20T04:41:59;101668.22;;;13.66;64.10
64853;BME280;56050;55.558;-4.644;2023-07-20T04:44:24;101667.44;;;13.65;64.09
64853;BME280;56050;55.558;-4.644;2023-07-20T04:46:49;101671.72;;;13.66;64.31
64853;BME280;56050;55.558;-4.644;2023-07-20T04:49:15;101672.09;;;13.68;64.08
64853;BME280;56050;55.558;-4.644;2023-07-20T04:51:40;101659.72;;;13.71;64.15
64853;BME280;56050;55.558;-4.644;2023-07-20T04:54:06;101662.81;;;13.73;64.12
64853;BME280;56050;55.558;-4.644;2023-07-20T04:56:31;101664.38;;;13.74;64.09
64853;BME280;56050;55.558;-4.644;2023-07-20T04:58:57;101659.75;;;13.74;63.93
64853;BME280;56050;55.558;-4.644;2023-07-20T05:01:23;101666.72;;;13.75;63.89
64853;BME280;56050;55.558;-4.644;2023-07-20T05:03:48;101669.81;;;13.77;63.98
64853;BME280;56050;55.558;-4.644;2023-07-20T05:06:14;101662.84;;;13.80;63.86
64853;BME280;56050;55.558;-4.644;2023-07-20T05:08:40;101661.28;;;13.82;63.89
64853;BME280;56050;55.558;-4.644;2023-07-20T05:11:06;101657.41;;;13.87;63.79
64853;BME280;56050;55.558;-4.644;2023-07-20T05:13:32;101659.00;;;13.91;63.97
64853;BME280;56050;55.558;-4.644;2023-07-20T05:15:58;101662.47;;;13.95;63.67
64853;BME280;56050;55.558;-4.644;2023-07-20T05:18:23;101662.06;;;14.00;63.89
64853;BME280;56050;55.558;-4.644;2023-07-20T05:20:49;101657.03;;;14.06;63.73
64853;BME280;56050;55.558;-4.644;2023-07-20T05:23:17;101659.00;;;14.12;63.74
64853;BME280;56050;55.558;-4.644;2023-07-20T05:25:43;101660.53;;;14.21;63.62
64853;BME280;56050;55.558;-4.644;2023-07-20T05:28:08;101653.59;;;14.30;63.89
64853;BME280;56050;55.558;-4.644;2023-07-20T05:30:34;101653.59;;;14.41;63.75
64853;BME280;56050;55.558;-4.644;2023-07-20T05:32:59;101655.13;;;14.52;63.45
64853;BME280;56050;55.558;-4.644;2023-07-20T05:35:26;101642.34;;;14.63;63.50
64853;BME280;56050;55.558;-4.644;2023-07-20T05:37:51;101639.97;;;14.73;63.49
64853;BME280;56050;55.558;-4.644;2023-07-20T05:40:17;101641.13;;;14.82;63.50
64853;BME280;56050;55.558;-4.644;2023-07-20T05:42:45;101643.41;;;14.91;63.22
64853;BME280;56050;55.558;-4.644;2023-07-20T05:45:12;101646.88;;;14.98;63.37
64853;BME280;56050;55.558;-4.644;2023-07-20T05:47:37;101640.66;;;15.05;63.33
64853;BME280;56050;55.558;-4.644;2023-07-20T05:50:03;101641.78;;;15.11;63.37
64853;BME280;56050;55.558;-4.644;2023-07-20T05:52:29;101655.31;;;15.18;63.10
64853;BME280;56050;55.558;-4.644;2023-07-20T05:54:54;101637.84;;;15.22;63.29
64853;BME280;56050;55.558;-4.644;2023-07-20T05:57:20;101645.56;;;15.27;63.24
64853;BME280;56050;55.558;-4.644;2023-07-20T05:59:46;101640.50;;;15.33;63.40
64853;BME280;56050;55.558;-4.644;2023-07-20T06:02:11;101639.34;;;15.38;63.27
64853;BME280;56050;55.558;-4.644;2023-07-20T06:04:38;101645.50;;;15.42;63.26
64853;BME280;56050;55.558;-4.644;2023-07-20T06:07:04;101643.94;;;15.48;63.22
64853;BME280;56050;55.558;-4.644;2023-07-20T06:09:30;101645.47;;;15.52;63.44
64853;BME280;56050;55.558;-4.644;2023-07-20T06:11:56;101646.22;;;15.56;63.12
64853;BME280;56050;55.558;-4.644;2023-07-20T06:14:22;101650.47;;;15.61;63.29
64853;BME280;56050;55.558;-4.644;2023-07-20T06:16:47;101651.59;;;15.67;63.21
64853;BME280;56050;55.558;-4.644;2023-07-20T06:19:12;101646.94;;;15.71;63.06
64853;BME280;56050;55.558;-4.644;2023-07-20T06:21:38;101651.94;;;15.76;62.96
64853;BME280;56050;55.558;-4.644;2023-07-20T06:24:04;101646.84;;;15.81;63.01
64853;BME280;56050;55.558;-4.644;2023-07-20T06:26:30;101649.91;;;15.87;62.80
64853;BME280;56050;55.558;-4.644;2023-07-20T06:28:56;101649.13;;;15.90;62.87
64853;BME280;56050;55.558;-4.644;2023-07-20T06:31:21;101653.34;;;15.95;62.86
64853;BME280;56050;55.558;-4.644;2023-07-20T06:33:47;101658.34;;;16.00;62.44
64853;BME280;56050;55.558;-4.644;2023-07-20T06:36:12;101654.03;;;16.06;62.53
64853;BME280;56050;55.558;-4.644;2023-07-20T06:38:38;101651.25;;;16.13;62.50
64853;BME280;56050;55.558;-4.644;2023-07-20T06:41:03;101652.34;;;16.22;62.50
64853;BME280;56050;55.558;-4.644;2023-07-20T06:43:29;101654.59;;;16.31;62.29
64853;BME280;56050;55.558;-4.644;2023-07-20T06:45:54;101651.41;;;16.39;62.03
64853;BME280;56050;55.558;-4.644;2023-07-20T06:48:20;101648.63;;;16.46;61.89
64853;BME280;56050;55.558;-4.644;2023-07-20T06:50:46;101651.31;;;16.54;61.89
64853;BME280;56050;55.558;-4.644;2023-07-20T06:53:12;101650.44;;;16.60;61.69
64853;BME280;56050;55.558;-4.644;2023-07-20T06:55:37;101653.13;;;16.67;61.70
64853;BME280;56050;55.558;-4.644;2023-07-20T06:58:02;101658.47;;;16.74;61.39
64853;BME280;56050;55.558;-4.644;2023-07-20T07:00:28;101657.66;;;16.77;61.49
64853;BME280;56050;55.558;-4.644;2023-07-20T07:02:53;101663.75;;;16.88;61.33
64853;BME280;56050;55.558;-4.644;2023-07-20T07:05:19;101657.41;;;16.98;61.15
64853;BME280;56050;55.558;-4.644;2023-07-20T07:07:44;101671.75;;;17.06;61.17
64853;BME280;56050;55.558;-4.644;2023-07-20T07:10:10;101662.34;;;17.11;60.97
64853;BME280;56050;55.558;-4.644;2023-07-20T07:12:35;101667.75;;;17.14;60.65
64853;BME280;56050;55.558;-4.644;2023-07-20T07:15:02;101671.25;;;17.15;60.78
64853;BME280;56050;55.558;-4.644;2023-07-20T07:17:27;101664.25;;;17.14;60.61
64853;BME280;56050;55.558;-4.644;2023-07-20T07:19:53;101665.47;;;17.09;60.44
64853;BME280;56050;55.558;-4.644;2023-07-20T07:22:21;101657.38;;;17.02;60.82
64853;BME280;56050;55.558;-4.644;2023-07-20T07:24:47;101661.31;;;17.01;60.78
64853;BME280;56050;55.558;-4.644;2023-07-20T07:27:13;101664.78;;;17.01;60.96
64853;BME280;56050;55.558;-4.644;2023-07-20T07:29:41;101665.97;;;17.00;60.75
64853;BME280;56050;55.558;-4.644;2023-07-20T07:32:07;101661.34;;;16.97;60.74
64853;BME280;56050;55.558;-4.644;2023-07-20T07:34:32;101666.47;;;16.92;61.02
64853;BME280;56050;55.558;-4.644;2023-07-20T07:36:59;101663.78;;;16.85;61.11
64853;BME280;56050;55.558;-4.644;2023-07-20T07:39:25;101668.56;;;16.77;60.83
64853;BME280;56050;55.558;-4.644;2023-07-20T07:41:50;101665.53;;;16.68;61.20
64853;BME280;56050;55.558;-4.644;2023-07-20T07:44:18;101661.34;;;16.60;61.18
64853;BME280;56050;55.558;-4.644;2023-07-20T07:46:43;101672.63;;;16.59;61.45
64853;BME280;56050;55.558;-4.644;2023-07-20T07:49:08;101664.13;;;16.57;61.31
64853;BME280;56050;55.558;-4.644;2023-07-20T07:51:34;101671.06;;;16.61;61.53
64853;BME280;56050;55.558;-4.644;2023-07-20T07:53:59;101671.72;;;16.72;61.51
64853;BME280;56050;55.558;-4.644;2023-07-20T07:56:25;101679.41;;;16.81;61.52
64853;BME280;56050;55.558;-4.644;2023-07-20T07:58:51;101662.63;;;16.86;61.41
64853;BME280;56050;55.558;-4.644;2023-07-20T08:01:17;101669.16;;;16.95;61.41
64853;BME280;56050;55.558;-4.644;2023-07-20T08:03:44;101675.28;;;17.03;61.01
64853;BME280;56050;55.558;-4.644;2023-07-20T08:06:13;101672.06;;;17.12;60.97
64853;BME280;56050;55.558;-4.644;2023-07-20T08:08:38;101672.75;;;17.19;60.57
64853;BME280;56050;55.558;-4.644;2023-07-20T08:11:04;101664.16;;;17.21;60.19
64853;BME280;56050;55.558;-4.644;2023-07-20T08:13:29;101669.16;;;17.26;60.33
64853;BME280;56050;55.558;-4.644;2023-07-20T08:15:55;101672.91;;;17.35;60.50
64853;BME280;56050;55.558;-4.644;2023-07-20T08:18:20;101666.88;;;17.51;60.34
64853;BME280;56050;55.558;-4.644;2023-07-20T08:20:46;101663.22;;;17.65;60.01
64853;BME280;56050;55.558;-4.644;2023-07-20T08:23:12;101666.25;;;17.70;59.49
64853;BME280;56050;55.558;-4.644;2023-07-20T08:25:39;101660.03;;;17.70;58.95
64853;BME280;56050;55.558;-4.644;2023-07-20T08:28:07;101669.34;;;17.72;58.97
64853;BME280;56050;55.558;-4.644;2023-07-20T08:30:41;101667.75;;;17.75;58.75
64853;BME280;56050;55.558;-4.644;2023-07-20T08:33:08;101671.28;;;17.72;58.37
64853;BME280;56050;55.558;-4.644;2023-07-20T08:35:34;101672.91;;;17.66;58.33
64853;BME280;56050;55.558;-4.644;2023-07-20T08:37:59;101663.72;;;17.56;58.54
64853;BME280;56050;55.558;-4.644;2023-07-20T08:40:24;101666.13;;;17.50;58.48
64853;BME280;56050;55.558;-4.644;2023-07-20T08:42:50;101671.28;;;17.41;57.92
64853;BME280;56050;55.558;-4.644;2023-07-20T08:45:16;101673.34;;;17.34;58.26
64853;BME280;56050;55.558;-4.644;2023-07-20T08:47:43;101677.66;;;17.31;58.43
64853;BME280;56050;55.558;-4.644;2023-07-20T08:50:11;101675.66;;;17.35;58.48
64853;BME280;56050;55.558;-4.644;2023-07-20T08:52:37;101669.28;;;17.45;58.47
64853;BME280;56050;55.558;-4.644;2023-07-20T08:55:03;101673.09;;;17.51;58.47
64853;BME280;56050;55.558;-4.644;2023-07-20T08:57:32;101678.06;;;17.60;58.35
64853;BME280;56050;55.558;-4.644;2023-07-20T08:59:59;101678.38;;;17.66;57.64
64853;BME280;56050;55.558;-4.644;2023-07-20T09:02:26;101674.06;;;17.68;58.05
64853;BME280;56050;55.558;-4.644;2023-07-20T09:04:52;101677.09;;;17.74;57.87
64853;BME280;56050;55.558;-4.644;2023-07-20T09:07:18;101680.59;;;17.74;57.61
64853;BME280;56050;55.558;-4.644;2023-07-20T09:09:45;101674.66;;;17.79;58.02
64853;BME280;56050;55.558;-4.644;2023-07-20T09:12:14;101673.03;;;17.85;57.71
64853;BME280;56050;55.558;-4.644;2023-07-20T09:14:43;101674.94;;;17.88;57.29
64853;BME280;56050;55.558;-4.644;2023-07-20T09:17:13;101671.03;;;17.89;57.27
64853;BME280;56050;55.558;-4.644;2023-07-20T09:19:39;101667.88;;;17.91;56.59
64853;BME280;56050;55.558;-4.644;2023-07-20T09:22:05;101667.09;;;17.90;56.83
64853;BME280;56050;55.558;-4.644;2023-07-20T09:24:31;101659.22;;;17.96;57.37
64853;BME280;56050;55.558;-4.644;2023-07-20T09:27:01;101662.59;;;18.03;56.83
64853;BME280;56050;55.558;-4.644;2023-07-20T09:29:29;101660.25;;;18.05;56.32
64853;BME280;56050;55.558;-4.644;2023-07-20T09:32:18;101658.41;;;17.99;56.01
64853;BME280;56050;55.558;-4.644;2023-07-20T09:34:44;101655.19;;;18.04;56.20
64853;BME280;56050;55.558;-4.644;2023-07-20T09:37:10;101663.19;;;18.14;56.13
64853;BME280;56050;55.558;-4.644;2023-07-20T09:39:45;101664.66;;;18.23;56.29
64853;BME280;56050;55.558;-4.644;2023-07-20T09:42:12;101661.06;;;18.26;55.73
64853;BME280;56050;55.558;-4.644;2023-07-20T09:44:43;101666.53;;;18.26;55.63
64853;BME280;56050;55.558;-4.644;2023-07-20T09:47:09;101661.97;;;18.19;55.14
64853;BME280;56050;55.558;-4.644;2023-07-20T09:49:41;101659.78;;;18.10;55.51
64853;BME280;56050;55.558;-4.644;2023-07-20T09:52:08;101661.03;;;18.06;55.29
64853;BME280;56050;55.558;-4.644;2023-07-20T09:54:35;101658.41;;;17.99;55.61
64853;BME280;56050;55.558;-4.644;2023-07-20T09:57:02;101656.94;;;17.94;55.46
64853;BME280;56050;55.558;-4.644;2023-07-20T09:59:28;101650.34;;;17.92;55.26
64853;BME280;56050;55.558;-4.644;2023-07-20T10:01:53;101651.53;;;17.91;55.53
64853;BME280;56050;55.558;-4.644;2023-07-20T10:04:23;101655.41;;;17.90;55.32
64853;BME280;56050;55.558;-4.644;2023-07-20T10:06:52;101649.97;;;17.90;55.41
64853;BME280;56050;55.558;-4.644;2023-07-20T10:09:22;101643.78;;;17.89;55.22
64853;BME280;56050;55.558;-4.644;2023-07-20T10:11:50;101653.06;;;17.92;55.29
64853;BME280;56050;55.558;-4.644;2023-07-20T10:14:21;101644.06;;;17.95;55.25
64853;BME280;56050;55.558;-4.644;2023-07-20T10:16:50;101649.16;;;17.93;54.82
64853;BME280;56050;55.558;-4.644;2023-07-20T10:19:39;101648.38;;;17.92;54.68
64853;BME280;56050;55.558;-4.644;2023-07-20T10:22:13;101649.44;;;17.98;55.13
64853;BME280;56050;55.558;-4.644;2023-07-20T10:24:39;101650.94;;;18.03;54.98
64853;BME280;56050;55.558;-4.644;2023-07-20T10:27:05;101652.84;;;18.06;55.02
64853;BME280;56050;55.558;-4.644;2023-07-20T10:29:31;101650.03;;;18.09;54.82
64853;BME280;56050;55.558;-4.644;2023-07-20T10:31:57;101645.78;;;18.08;54.92
64853;BME280;56050;55.558;-4.644;2023-07-20T10:34:23;101644.66;;;18.06;54.81
64853;BME280;56050;55.558;-4.644;2023-07-20T10:36:49;101646.53;;;18.09;55.14
64853;BME280;56050;55.558;-4.644;2023-07-20T10:39:30;101650.34;;;18.15;55.24
64853;BME280;56050;55.558;-4.644;2023-07-20T10:42:06;101650.59;;;18.24;55.19
64853;BME280;56050;55.558;-4.644;2023-07-20T10:44:33;101636.81;;;18.31;55.11
64853;BME280;56050;55.558;-4.644;2023-07-20T10:47:03;101645.22;;;18.40;55.01
64853;BME280;56050;55.558;-4.644;2023-07-20T10:49:33;101634.22;;;18.47;55.01
64853;BME280;56050;55.558;-4.644;2023-07-20T10:52:00;101638.88;;;18.47;54.83
64853;BME280;56050;55.558;-4.644;2023-07-20T10:56:51;101636.28;;;18.40;54.75
64853;BME280;56050;55.558;-4.644;2023-07-20T10:59:36;101633.53;;;18.40;55.02
64853;BME280;56050;55.558;-4.644;2023-07-20T11:02:07;101634.59;;;18.46;54.74
64853;BME280;56050;55.558;-4.644;2023-07-20T11:04:39;101625.13;;;18.54;54.94
64853;BME280;56050;55.558;-4.644;2023-07-20T11:07:05;101631.31;;;18.58;54.57
64853;BME280;56050;55.558;-4.644;2023-07-20T11:09:35;101623.19;;;18.54;54.06
64853;BME280;56050;55.558;-4.644;2023-07-20T11:12:17;101631.41;;;18.51;54.37
64853;BME280;56050;55.558;-4.644;2023-07-20T11:15:03;101623.94;;;18.55;54.06
64853;BME280;56050;55.558;-4.644;2023-07-20T11:17:30;101623.53;;;18.56;53.97
64853;BME280;56050;55.558;-4.644;2023-07-20T11:19:57;101627.03;;;18.57;53.99
64853;BME280;56050;55.558;-4.644;2023-07-20T11:22:22;101626.53;;;18.62;54.35
64853;BME280;56050;55.558;-4.644;2023-07-20T11:24:48;101629.63;;;18.64;53.76
64853;BME280;56050;55.558;-4.644;2023-07-20T11:27:14;101624.56;;;18.62;53.42
64853;BME280;56050;55.558;-4.644;2023-07-20T11:29:40;101623.47;;;18.60;53.61
64853;BME280;56050;55.558;-4.644;2023-07-20T11:32:06;101620.66;;;18.63;53.74
64853;BME280;56050;55.558;-4.644;2023-07-20T11:34:32;101620.19;;;18.68;53.23
64853;BME280;56050;55.558;-4.644;2023-07-20T11:36:58;101620.19;;;18.68;53.65
64853;BME280;56050;55.558;-4.644;2023-07-20T11:39:24;101620.03;;;18.75;53.52
64853;BME280;56050;55.558;-4.644;2023-07-20T11:41:56;101614.84;;;18.81;53.34
64853;BME280;56050;55.558;-4.644;2023-07-20T11:44:24;101615.97;;;18.84;53.45
64853;BME280;56050;55.558;-4.644;2023-07-20T11:47:02;101608.47;;;18.88;53.30
64853;BME280;56050;55.558;-4.644;2023-07-20T11:49:29;101616.38;;;19.02;53.25
64853;BME280;56050;55.558;-4.644;2023-07-20T11:51:55;101606.69;;;19.17;53.35
64853;BME280;56050;55.558;-4.644;2023-07-20T11:54:21;101613.13;;;19.26;52.12
64853;BME280;56050;55.558;-4.644;2023-07-20T11:56:48;101607.72;;;19.23;52.43
64853;BME280;56050;55.558;-4.644;2023-07-20T11:59:13;101613.19;;;19.23;52.17
64853;BME280;56050;55.558;-4.644;2023-07-20T12:01:39;101601.16;;;19.20;52.09
64853;BME280;56050;55.558;-4.644;2023-07-20T12:04:05;101610.41;;;19.26;52.48
64853;BME280;56050;55.558;-4.644;2023-07-20T12:06:32;101606.75;;;19.33;52.19
64853;BME280;56050;55.558;-4.644;2023-07-20T12:08:58;101607.38;;;19.41;52.51
64853;BME280;56050;55.558;-4.644;2023-07-20T12:11:37;101606.34;;;19.51;52.16
64853;BME280;56050;55.558;-4.644;2023-07-20T12:14:04;101603.03;;;19.59;52.17
64853;BME280;56050;55.558;-4.644;2023-07-20T12:16:30;101601.25;;;19.69;52.21
64853;BME280;56050;55.558;-4.644;2023-07-20T12:19:07;101594.75;;;19.79;52.18
64853;BME280;56050;55.558;-4.644;2023-07-20T12:21:37;101590.97;;;19.89;51.81
64853;BME280;56050;55.558;-4.644;2023-07-20T12:24:04;101592.00;;;19.95;52.00
64853;BME280;56050;55.558;-4.644;2023-07-20T12:26:30;101592.69;;;19.99;51.45
64853;BME280;56050;55.558;-4.644;2023-07-20T12:28:57;101596.53;;;20.02;51.47
64853;BME280;56050;55.558;-4.644;2023-07-20T12:31:23;101590.72;;;20.00;51.73
64853;BME280;56050;55.558;-4.644;2023-07-20T12:33:50;101592.25;;;20.01;51.65
64853;BME280;56050;55.558;-4.644;2023-07-20T12:36:15;101587.47;;;20.05;51.50
64853;BME280;56050;55.558;-4.644;2023-07-20T12:38:41;101593.94;;;20.11;51.84
64853;BME280;56050;55.558;-4.644;2023-07-20T12:41:10;101583.16;;;20.20;51.69
64853;BME280;56050;55.558;-4.644;2023-07-20T12:43:37;101591.63;;;20.25;51.27
64853;BME280;56050;55.558;-4.644;2023-07-20T12:46:03;101585.81;;;20.23;51.03
64853;BME280;56050;55.558;-4.644;2023-07-20T12:48:28;101581.19;;;20.20;51.19
64853;BME280;56050;55.558;-4.644;2023-07-20T12:50:54;101579.41;;;20.14;50.83